JES3019 SASA-SABE
Flight info
| Callsign | JES3019 |
|---|---|
| Flight time | 1h 49m |
| Altitude | 35000 |
| Route | VUL1 PONPI UT681 PUBER UL550 ROS UT672 MULTA UW24 SNT SNT8Q |
| Aircraft | A320/M-SDE3FGHIRWY/LB1 |
Departure
| Time | 2026-05-08 01:37 |
|---|---|
| Airport | Martín Miguel de Güemes International Airport (SASA) |
Arrival
| Time | 2026-05-08 03:26 |
|---|---|
| Airport | Aeroparque Jorge Newbery (SABE) |
| Time | Latitude | Longitude | Altitude | Speed | Heading |
|---|---|---|---|---|---|
| 2026-05-08 01:06 | -24.84468 | -65.47898 | 4017 ft | 0 kts | 22° |
| 2026-05-08 01:27 | -24.84478 | -65.47902 | 4017 ft | 4 kts | 21° |
| 2026-05-08 01:27 | -24.84502 | -65.47909 | 4017 ft | 4 kts | 343° |
| 2026-05-08 01:27 | -24.84513 | -65.47896 | 4017 ft | 4 kts | 292° |
| 2026-05-08 01:27 | -24.84523 | -65.47868 | 4017 ft | 3 kts | 292° |
| 2026-05-08 01:28 | -24.84525 | -65.47864 | 4017 ft | 0 kts | 292° |
| 2026-05-08 01:30 | -24.84524 | -65.47866 | 4017 ft | 2 kts | 292° |
| 2026-05-08 01:30 | -24.84515 | -65.47891 | 4017 ft | 5 kts | 292° |
| 2026-05-08 01:30 | -24.84500 | -65.47950 | 4017 ft | 10 kts | 267° |
| 2026-05-08 01:31 | -24.84519 | -65.48026 | 4017 ft | 11 kts | 252° |
| 2026-05-08 01:31 | -24.84549 | -65.48129 | 4017 ft | 16 kts | 252° |
| 2026-05-08 01:31 | -24.84583 | -65.48249 | 4017 ft | 17 kts | 252° |
| 2026-05-08 01:31 | -24.84646 | -65.48359 | 4017 ft | 18 kts | 220° |
| 2026-05-08 01:32 | -24.84766 | -65.48448 | 4018 ft | 22 kts | 193° |
| 2026-05-08 01:32 | -24.84921 | -65.48474 | 4018 ft | 23 kts | 190° |
| 2026-05-08 01:32 | -24.85088 | -65.48513 | 4017 ft | 29 kts | 192° |
| 2026-05-08 01:32 | -24.85313 | -65.48567 | 4017 ft | 34 kts | 190° |
| 2026-05-08 01:33 | -24.85543 | -65.48614 | 4019 ft | 34 kts | 191° |
| 2026-05-08 01:33 | -24.85775 | -65.48663 | 4018 ft | 34 kts | 191° |
| 2026-05-08 01:33 | -24.86007 | -65.48714 | 4019 ft | 34 kts | 191° |
| 2026-05-08 01:33 | -24.86242 | -65.48764 | 4017 ft | 35 kts | 191° |
| 2026-05-08 01:34 | -24.86481 | -65.48815 | 4014 ft | 35 kts | 191° |
| 2026-05-08 01:34 | -24.86721 | -65.48867 | 4012 ft | 35 kts | 191° |
| 2026-05-08 01:34 | -24.86963 | -65.48904 | 4016 ft | 34 kts | 186° |
| 2026-05-08 01:34 | -24.87191 | -65.48942 | 4019 ft | 30 kts | 189° |
| 2026-05-08 01:35 | -24.87247 | -65.48977 | 4019 ft | 3 kts | 308° |
| 2026-05-08 01:35 | -24.87224 | -65.48973 | 4019 ft | 0 kts | 9° |
| 2026-05-08 01:35 | -24.87223 | -65.48972 | 4019 ft | 0 kts | 9° |
| 2026-05-08 01:36 | -24.87075 | -65.48942 | 4019 ft | 56 kts | 11° |
| 2026-05-08 01:36 | -24.86466 | -65.48811 | 4006 ft | 118 kts | 11° |
| 2026-05-08 01:36 | -24.85493 | -65.48592 | 4025 ft | 165 kts | 13° |
| 2026-05-08 01:36 | -24.84351 | -65.48301 | 4625 ft | 169 kts | 10° |
| 2026-05-08 01:37 | -24.83185 | -65.48046 | 5372 ft | 172 kts | 12° |
| 2026-05-08 01:37 | -24.81956 | -65.47786 | 5700 ft | 191 kts | 13° |
| 2026-05-08 01:37 | -24.80575 | -65.47491 | 5893 ft | 213 kts | 12° |
| 2026-05-08 01:37 | -24.79018 | -65.47159 | 6110 ft | 235 kts | 13° |
| 2026-05-08 01:38 | -24.77405 | -65.46815 | 6736 ft | 242 kts | 13° |
| 2026-05-08 01:38 | -24.75795 | -65.46276 | 7434 ft | 243 kts | 35° |
| 2026-05-08 01:38 | -24.74698 | -65.44874 | 7979 ft | 254 kts | 69° |
| 2026-05-08 01:38 | -24.74506 | -65.42884 | 8321 ft | 274 kts | 98° |
| 2026-05-08 01:39 | -24.74974 | -65.40810 | 8900 ft | 284 kts | 107° |
| 2026-05-08 01:39 | -24.75631 | -65.38739 | 9594 ft | 290 kts | 108° |
| 2026-05-08 01:39 | -24.76303 | -65.36614 | 10259 ft | 296 kts | 109° |
| 2026-05-08 01:39 | -24.77305 | -65.34616 | 10843 ft | 303 kts | 130° |
| 2026-05-08 01:40 | -24.78901 | -65.33090 | 11437 ft | 308 kts | 150° |
| 2026-05-08 01:40 | -24.80946 | -65.32217 | 11608 ft | 327 kts | 173° |
| 2026-05-08 01:40 | -24.83277 | -65.32095 | 11738 ft | 346 kts | 181° |
| 2026-05-08 01:40 | -24.85741 | -65.32076 | 11976 ft | 361 kts | 181° |
| 2026-05-08 01:41 | -24.88272 | -65.32075 | 12479 ft | 366 kts | 182° |
| 2026-05-08 01:41 | -24.90831 | -65.32077 | 13021 ft | 369 kts | 182° |
| 2026-05-08 01:41 | -24.93412 | -65.32073 | 13574 ft | 372 kts | 183° |
| 2026-05-08 01:41 | -24.96008 | -65.32060 | 14080 ft | 374 kts | 183° |
| 2026-05-08 01:42 | -24.98624 | -65.32040 | 14549 ft | 376 kts | 182° |
| 2026-05-08 01:42 | -25.01241 | -65.32018 | 15089 ft | 376 kts | 183° |
| 2026-05-08 01:42 | -25.03854 | -65.31995 | 15679 ft | 375 kts | 184° |
| 2026-05-08 01:42 | -25.06433 | -65.31976 | 16225 ft | 375 kts | 183° |
| 2026-05-08 01:43 | -25.09048 | -65.31958 | 16781 ft | 376 kts | 183° |
| 2026-05-08 01:43 | -25.11664 | -65.31942 | 17317 ft | 376 kts | 184° |
| 2026-05-08 01:43 | -25.14281 | -65.31927 | 17873 ft | 377 kts | 183° |
| 2026-05-08 01:43 | -25.16904 | -65.31912 | 18400 ft | 378 kts | 183° |
| 2026-05-08 01:44 | -25.19539 | -65.31898 | 18851 ft | 379 kts | 183° |
| 2026-05-08 01:44 | -25.22182 | -65.31884 | 19300 ft | 381 kts | 184° |
| 2026-05-08 01:44 | -25.24844 | -65.31867 | 19760 ft | 383 kts | 184° |
| 2026-05-08 01:44 | -25.27514 | -65.31850 | 20231 ft | 384 kts | 184° |
| 2026-05-08 01:45 | -25.30196 | -65.31832 | 20714 ft | 386 kts | 184° |
| 2026-05-08 01:45 | -25.32885 | -65.31812 | 21192 ft | 387 kts | 184° |
| 2026-05-08 01:45 | -25.35583 | -65.31793 | 21623 ft | 389 kts | 184° |
| 2026-05-08 01:45 | -25.38298 | -65.31774 | 22042 ft | 391 kts | 185° |
| 2026-05-08 01:46 | -25.41019 | -65.31756 | 22448 ft | 392 kts | 185° |
| 2026-05-08 01:46 | -25.42830 | -65.31745 | 22682 ft | 394 kts | 185° |
| 2026-05-08 01:46 | -25.45578 | -65.31728 | 23086 ft | 396 kts | 185° |
| 2026-05-08 01:46 | -25.48338 | -65.31709 | 23518 ft | 397 kts | 185° |
| 2026-05-08 01:47 | -25.51108 | -65.31689 | 23889 ft | 399 kts | 185° |
| 2026-05-08 01:47 | -25.53888 | -65.31672 | 24235 ft | 400 kts | 185° |
| 2026-05-08 01:47 | -25.56681 | -65.31658 | 24575 ft | 401 kts | 185° |
| 2026-05-08 01:48 | -25.62290 | -65.31628 | 25264 ft | 404 kts | 185° |
| 2026-05-08 01:48 | -25.65074 | -65.31608 | 25625 ft | 405 kts | 185° |
| 2026-05-08 01:48 | -25.67901 | -65.31588 | 25984 ft | 406 kts | 185° |
| 2026-05-08 01:48 | -25.70741 | -65.31567 | 26329 ft | 408 kts | 185° |
| 2026-05-08 01:49 | -25.73586 | -65.31536 | 26677 ft | 410 kts | 182° |
| 2026-05-08 01:49 | -25.76439 | -65.31139 | 27029 ft | 419 kts | 173° |
| 2026-05-08 01:49 | -25.79259 | -65.30211 | 27375 ft | 425 kts | 167° |
| 2026-05-08 01:49 | -25.82073 | -65.29166 | 27720 ft | 427 kts | 168° |
| 2026-05-08 01:50 | -25.84893 | -65.28122 | 28089 ft | 427 kts | 168° |
| 2026-05-08 01:50 | -25.87706 | -65.27082 | 28615 ft | 424 kts | 168° |
| 2026-05-08 01:50 | -25.90494 | -65.26050 | 29132 ft | 421 kts | 168° |
| 2026-05-08 01:50 | -25.93275 | -65.25024 | 29651 ft | 419 kts | 168° |
| 2026-05-08 01:51 | -25.96036 | -65.24005 | 30163 ft | 417 kts | 168° |
| 2026-05-08 01:51 | -25.98783 | -65.22993 | 30587 ft | 415 kts | 168° |
| 2026-05-08 01:51 | -26.01524 | -65.21984 | 30997 ft | 414 kts | 168° |
| 2026-05-08 01:51 | -26.04257 | -65.20979 | 31388 ft | 412 kts | 168° |
| 2026-05-08 01:52 | -26.06946 | -65.19988 | 31775 ft | 411 kts | 168° |
| 2026-05-08 01:52 | -26.09659 | -65.18986 | 32169 ft | 410 kts | 168° |
| 2026-05-08 01:52 | -26.12367 | -65.17985 | 32571 ft | 409 kts | 168° |
| 2026-05-08 01:52 | -26.15074 | -65.16986 | 32972 ft | 408 kts | 169° |
| 2026-05-08 01:53 | -26.17768 | -65.15992 | 33370 ft | 407 kts | 169° |
| 2026-05-08 01:53 | -26.20456 | -65.15001 | 33776 ft | 406 kts | 169° |
| 2026-05-08 01:53 | -26.23139 | -65.14010 | 34157 ft | 405 kts | 169° |
| 2026-05-08 01:53 | -26.25820 | -65.13015 | 34454 ft | 405 kts | 169° |
| 2026-05-08 01:54 | -26.28499 | -65.12021 | 34721 ft | 406 kts | 169° |
| 2026-05-08 01:54 | -26.31182 | -65.11022 | 34966 ft | 408 kts | 169° |
| 2026-05-08 01:54 | -26.36620 | -65.09005 | 35078 ft | 417 kts | 169° |
| 2026-05-08 01:55 | -26.42138 | -65.06967 | 35066 ft | 422 kts | 169° |
| 2026-05-08 01:55 | -26.47730 | -65.04886 | 35062 ft | 423 kts | 169° |
| 2026-05-08 01:56 | -26.53323 | -65.02797 | 35065 ft | 423 kts | 169° |
| 2026-05-08 01:56 | -26.58902 | -65.00716 | 35054 ft | 423 kts | 169° |
| 2026-05-08 01:57 | -26.64487 | -64.98639 | 35093 ft | 423 kts | 169° |
| 2026-05-08 01:57 | -26.70033 | -64.96564 | 35076 ft | 422 kts | 169° |
| 2026-05-08 01:58 | -26.75609 | -64.94477 | 35059 ft | 422 kts | 169° |
| 2026-05-08 01:58 | -26.81185 | -64.92395 | 35048 ft | 421 kts | 169° |
| 2026-05-08 01:59 | -26.86746 | -64.90312 | 35043 ft | 422 kts | 169° |
| 2026-05-08 01:59 | -26.92273 | -64.88238 | 35057 ft | 419 kts | 170° |
| 2026-05-08 02:00 | -26.97804 | -64.86160 | 35049 ft | 418 kts | 170° |
| 2026-05-08 02:00 | -27.03326 | -64.84083 | 35044 ft | 418 kts | 170° |
| 2026-05-08 02:01 | -27.08845 | -64.82021 | 35045 ft | 418 kts | 170° |
| 2026-05-08 02:01 | -27.14326 | -64.79963 | 35037 ft | 418 kts | 170° |
| 2026-05-08 02:02 | -27.19832 | -64.77882 | 35029 ft | 417 kts | 170° |
| 2026-05-08 02:02 | -27.25337 | -64.75804 | 35026 ft | 417 kts | 170° |
| 2026-05-08 02:03 | -27.30838 | -64.73730 | 35023 ft | 417 kts | 170° |
| 2026-05-08 02:03 | -27.36343 | -64.71655 | 35024 ft | 417 kts | 170° |
| 2026-05-08 02:04 | -27.41855 | -64.69569 | 35061 ft | 417 kts | 171° |
| 2026-05-08 02:04 | -27.47326 | -64.67487 | 35048 ft | 418 kts | 171° |
| 2026-05-08 02:05 | -27.52821 | -64.65310 | 35040 ft | 424 kts | 165° |
| 2026-05-08 02:05 | -27.58038 | -64.61998 | 35034 ft | 433 kts | 159° |
| 2026-05-08 02:06 | -27.63214 | -64.58523 | 35027 ft | 433 kts | 159° |
| 2026-05-08 02:06 | -27.68387 | -64.55046 | 35010 ft | 430 kts | 159° |
| 2026-05-08 02:07 | -27.73511 | -64.51591 | 35006 ft | 429 kts | 159° |
| 2026-05-08 02:07 | -27.78649 | -64.48131 | 35004 ft | 430 kts | 159° |
| 2026-05-08 02:08 | -27.83781 | -64.44679 | 35005 ft | 430 kts | 159° |
| 2026-05-08 02:08 | -27.88892 | -64.41229 | 35041 ft | 430 kts | 159° |
| 2026-05-08 02:09 | -27.94025 | -64.37751 | 35032 ft | 430 kts | 159° |
| 2026-05-08 02:09 | -27.99160 | -64.34276 | 35030 ft | 430 kts | 159° |
| 2026-05-08 02:10 | -28.04296 | -64.30798 | 35012 ft | 430 kts | 159° |
| 2026-05-08 02:10 | -28.09441 | -64.27310 | 35002 ft | 431 kts | 159° |
| 2026-05-08 02:11 | -28.14589 | -64.23825 | 35024 ft | 431 kts | 159° |
| 2026-05-08 02:11 | -28.19738 | -64.20321 | 35008 ft | 432 kts | 159° |
| 2026-05-08 02:12 | -28.24892 | -64.16803 | 35000 ft | 432 kts | 159° |
| 2026-05-08 02:12 | -28.30057 | -64.13289 | 34993 ft | 432 kts | 159° |
| 2026-05-08 02:13 | -28.35194 | -64.09797 | 34999 ft | 433 kts | 159° |
| 2026-05-08 02:13 | -28.40366 | -64.06275 | 35013 ft | 434 kts | 160° |
| 2026-05-08 02:14 | -28.45540 | -64.02742 | 35004 ft | 435 kts | 159° |
| 2026-05-08 02:14 | -28.50741 | -63.99185 | 34982 ft | 436 kts | 159° |
| 2026-05-08 02:15 | -28.55941 | -63.95624 | 34983 ft | 437 kts | 159° |
| 2026-05-08 02:15 | -28.61162 | -63.92044 | 34985 ft | 438 kts | 159° |
| 2026-05-08 02:16 | -28.66347 | -63.88494 | 34987 ft | 438 kts | 159° |
| 2026-05-08 02:16 | -28.71572 | -63.84908 | 34999 ft | 438 kts | 159° |
| 2026-05-08 02:17 | -28.76798 | -63.81313 | 35000 ft | 438 kts | 159° |
| 2026-05-08 02:17 | -28.82014 | -63.77704 | 35032 ft | 438 kts | 159° |
| 2026-05-08 02:18 | -28.87215 | -63.74085 | 35015 ft | 437 kts | 159° |
| 2026-05-08 02:18 | -28.92384 | -63.70485 | 34990 ft | 438 kts | 159° |
| 2026-05-08 02:19 | -28.97601 | -63.66845 | 34993 ft | 440 kts | 158° |
| 2026-05-08 02:19 | -29.02829 | -63.63207 | 34990 ft | 440 kts | 158° |
| 2026-05-08 02:20 | -29.08070 | -63.59545 | 35030 ft | 441 kts | 158° |
| 2026-05-08 02:20 | -29.13309 | -63.55882 | 35022 ft | 441 kts | 158° |
| 2026-05-08 02:21 | -29.18521 | -63.52236 | 35005 ft | 441 kts | 158° |
| 2026-05-08 02:21 | -29.23758 | -63.48555 | 35000 ft | 441 kts | 158° |
| 2026-05-08 02:22 | -29.28994 | -63.44891 | 35018 ft | 441 kts | 159° |
| 2026-05-08 02:22 | -29.34222 | -63.41217 | 34991 ft | 440 kts | 158° |
| 2026-05-08 02:23 | -29.39458 | -63.37541 | 34972 ft | 442 kts | 158° |
| 2026-05-08 02:23 | -29.44714 | -63.33836 | 34968 ft | 444 kts | 158° |
| 2026-05-08 02:24 | -29.49974 | -63.30115 | 34969 ft | 445 kts | 158° |
| 2026-05-08 02:24 | -29.55245 | -63.26372 | 35008 ft | 445 kts | 158° |
| 2026-05-08 02:25 | -29.60486 | -63.22649 | 34998 ft | 445 kts | 158° |
| 2026-05-08 02:25 | -29.65755 | -63.18902 | 34987 ft | 445 kts | 158° |
| 2026-05-08 02:26 | -29.71025 | -63.15151 | 34987 ft | 445 kts | 158° |
| 2026-05-08 02:26 | -29.76299 | -63.11390 | 34994 ft | 445 kts | 158° |
| 2026-05-08 02:27 | -29.81562 | -63.07627 | 34968 ft | 446 kts | 158° |
| 2026-05-08 02:27 | -29.86843 | -63.03853 | 34960 ft | 447 kts | 158° |
| 2026-05-08 02:28 | -29.92132 | -63.00073 | 34961 ft | 448 kts | 158° |
| 2026-05-08 02:28 | -29.97428 | -62.96277 | 34996 ft | 448 kts | 157° |
| 2026-05-08 02:29 | -30.02730 | -62.92472 | 34983 ft | 449 kts | 157° |
| 2026-05-08 02:29 | -30.08042 | -62.88661 | 34976 ft | 449 kts | 157° |
| 2026-05-08 02:30 | -30.13324 | -62.84865 | 34971 ft | 450 kts | 157° |
| 2026-05-08 02:30 | -30.18641 | -62.81027 | 34978 ft | 451 kts | 157° |
| 2026-05-08 02:31 | -30.23956 | -62.77186 | 34967 ft | 449 kts | 157° |
| 2026-05-08 02:31 | -30.29235 | -62.73379 | 34955 ft | 450 kts | 157° |
| 2026-05-08 02:32 | -30.33687 | -62.70157 | 34954 ft | 451 kts | 157° |
| 2026-05-08 02:32 | -30.39006 | -62.66317 | 35008 ft | 451 kts | 157° |
| 2026-05-08 02:33 | -30.44316 | -62.62478 | 34967 ft | 449 kts | 157° |
| 2026-05-08 02:33 | -30.49621 | -62.58629 | 34965 ft | 449 kts | 157° |
| 2026-05-08 02:34 | -30.54891 | -62.54801 | 34969 ft | 450 kts | 157° |
| 2026-05-08 02:34 | -30.60199 | -62.50945 | 34982 ft | 450 kts | 157° |
| 2026-05-08 02:35 | -30.65520 | -62.47082 | 34969 ft | 451 kts | 157° |
| 2026-05-08 02:35 | -30.70833 | -62.43208 | 34962 ft | 451 kts | 156° |
| 2026-05-08 02:36 | -30.76158 | -62.39310 | 34959 ft | 452 kts | 156° |
| 2026-05-08 02:36 | -30.81480 | -62.35420 | 34958 ft | 452 kts | 157° |
| 2026-05-08 02:37 | -30.86806 | -62.31555 | 34957 ft | 451 kts | 157° |
| 2026-05-08 02:37 | -30.92141 | -62.27700 | 34958 ft | 452 kts | 157° |
| 2026-05-08 02:38 | -30.97473 | -62.23823 | 34960 ft | 452 kts | 157° |
| 2026-05-08 02:38 | -31.02773 | -62.19942 | 34995 ft | 453 kts | 156° |
| 2026-05-08 02:39 | -31.08110 | -62.16038 | 34977 ft | 453 kts | 156° |
| 2026-05-08 02:39 | -31.13458 | -62.12135 | 34973 ft | 453 kts | 156° |
| 2026-05-08 02:40 | -31.18806 | -62.08228 | 34963 ft | 454 kts | 156° |
| 2026-05-08 02:40 | -31.24160 | -62.04297 | 35004 ft | 454 kts | 156° |
| 2026-05-08 02:41 | -31.29477 | -62.00350 | 34954 ft | 451 kts | 156° |
| 2026-05-08 02:41 | -31.34771 | -61.96394 | 34949 ft | 452 kts | 156° |
| 2026-05-08 02:42 | -31.40071 | -61.92443 | 34946 ft | 452 kts | 156° |
| 2026-05-08 02:42 | -31.45387 | -61.88476 | 34986 ft | 453 kts | 156° |
| 2026-05-08 02:43 | -31.50703 | -61.84505 | 34966 ft | 453 kts | 156° |
| 2026-05-08 02:43 | -31.56012 | -61.80535 | 34958 ft | 453 kts | 156° |
| 2026-05-08 02:44 | -31.61327 | -61.76560 | 34954 ft | 452 kts | 156° |
| 2026-05-08 02:44 | -31.66637 | -61.72581 | 34971 ft | 452 kts | 156° |
| 2026-05-08 02:45 | -31.71931 | -61.68605 | 34952 ft | 452 kts | 156° |
| 2026-05-08 02:45 | -31.77211 | -61.64639 | 34946 ft | 452 kts | 156° |
| 2026-05-08 02:46 | -31.82502 | -61.60664 | 34942 ft | 451 kts | 156° |
| 2026-05-08 02:46 | -31.87794 | -61.56672 | 34943 ft | 452 kts | 155° |
| 2026-05-08 02:47 | -31.93085 | -61.52673 | 34935 ft | 451 kts | 155° |
| 2026-05-08 02:47 | -31.98369 | -61.48679 | 34927 ft | 451 kts | 155° |
| 2026-05-08 02:48 | -32.03631 | -61.44697 | 34917 ft | 452 kts | 155° |
| 2026-05-08 02:48 | -32.08919 | -61.40692 | 34932 ft | 452 kts | 155° |
| 2026-05-08 02:49 | -32.14218 | -61.36681 | 34926 ft | 452 kts | 155° |
| 2026-05-08 02:49 | -32.19511 | -61.32654 | 34928 ft | 453 kts | 155° |
| 2026-05-08 02:50 | -32.24805 | -61.28622 | 34912 ft | 453 kts | 155° |
| 2026-05-08 02:50 | -32.30111 | -61.24588 | 34928 ft | 454 kts | 155° |
| 2026-05-08 02:51 | -32.35420 | -61.20541 | 34903 ft | 454 kts | 155° |
| 2026-05-08 02:51 | -32.40736 | -61.16479 | 34901 ft | 455 kts | 155° |
| 2026-05-08 02:52 | -32.46048 | -61.12405 | 34893 ft | 455 kts | 155° |
| 2026-05-08 02:52 | -32.51331 | -61.08351 | 34910 ft | 455 kts | 154° |
| 2026-05-08 02:53 | -32.56679 | -61.04256 | 34915 ft | 455 kts | 154° |
| 2026-05-08 02:53 | -32.61990 | -61.00170 | 34902 ft | 455 kts | 154° |
| 2026-05-08 02:54 | -32.67288 | -60.96075 | 34904 ft | 455 kts | 154° |
| 2026-05-08 02:54 | -32.72560 | -60.92004 | 34875 ft | 455 kts | 154° |
| 2026-05-08 02:55 | -32.80512 | -60.85881 | 34851 ft | 455 kts | 154° |
| 2026-05-08 02:56 | -32.85825 | -60.81778 | 34848 ft | 455 kts | 154° |
| 2026-05-08 02:56 | -32.91136 | -60.77665 | 34845 ft | 455 kts | 155° |
| 2026-05-08 02:57 | -32.96553 | -60.73808 | 34848 ft | 452 kts | 157° |
| 2026-05-08 02:57 | -33.02038 | -60.70138 | 34843 ft | 453 kts | 158° |
| 2026-05-08 02:58 | -33.07529 | -60.66424 | 34867 ft | 454 kts | 156° |
| 2026-05-08 02:58 | -33.12998 | -60.62639 | 34861 ft | 455 kts | 156° |
| 2026-05-08 02:59 | -33.18465 | -60.58823 | 34845 ft | 455 kts | 156° |
| 2026-05-08 02:59 | -33.23940 | -60.55015 | 34840 ft | 455 kts | 156° |
| 2026-05-08 03:00 | -33.29377 | -60.51248 | 34860 ft | 455 kts | 156° |
| 2026-05-08 03:00 | -33.34852 | -60.47444 | 34849 ft | 454 kts | 156° |
| 2026-05-08 03:01 | -33.40318 | -60.43632 | 34846 ft | 454 kts | 156° |
| 2026-05-08 03:01 | -33.45778 | -60.39817 | 34852 ft | 455 kts | 156° |
| 2026-05-08 03:02 | -33.51238 | -60.36004 | 34845 ft | 454 kts | 155° |
| 2026-05-08 03:02 | -33.56696 | -60.32179 | 34834 ft | 454 kts | 155° |
| 2026-05-08 03:03 | -33.62153 | -60.28351 | 34821 ft | 454 kts | 155° |
| 2026-05-08 03:03 | -33.67614 | -60.24515 | 34440 ft | 456 kts | 155° |
| 2026-05-08 03:03 | -33.70391 | -60.22569 | 33324 ft | 467 kts | 155° |
| 2026-05-08 03:04 | -33.73191 | -60.20601 | 32662 ft | 465 kts | 155° |
| 2026-05-08 03:04 | -33.75973 | -60.18633 | 31804 ft | 460 kts | 156° |
| 2026-05-08 03:04 | -33.78736 | -60.16677 | 30538 ft | 459 kts | 156° |
| 2026-05-08 03:04 | -33.81411 | -60.14680 | 29866 ft | 449 kts | 152° |
| 2026-05-08 03:05 | -33.83789 | -60.12312 | 29240 ft | 440 kts | 143° |
| 2026-05-08 03:05 | -33.85837 | -60.09575 | 28663 ft | 442 kts | 135° |
| 2026-05-08 03:05 | -33.87603 | -60.06538 | 28056 ft | 443 kts | 131° |
| 2026-05-08 03:05 | -33.89320 | -60.03478 | 27446 ft | 440 kts | 131° |
| 2026-05-08 03:06 | -33.91020 | -60.00435 | 26858 ft | 437 kts | 131° |
| 2026-05-08 03:06 | -33.92692 | -59.97437 | 26273 ft | 435 kts | 131° |
| 2026-05-08 03:06 | -33.94377 | -59.94418 | 25683 ft | 433 kts | 131° |
| 2026-05-08 03:06 | -33.96057 | -59.91410 | 25102 ft | 431 kts | 131° |
| 2026-05-08 03:07 | -33.97736 | -59.88415 | 24548 ft | 433 kts | 130° |
| 2026-05-08 03:07 | -33.99418 | -59.85396 | 24170 ft | 435 kts | 130° |
| 2026-05-08 03:07 | -34.01106 | -59.82361 | 23942 ft | 435 kts | 130° |
| 2026-05-08 03:07 | -34.02784 | -59.79331 | 23711 ft | 434 kts | 130° |
| 2026-05-08 03:08 | -34.04458 | -59.76303 | 23480 ft | 433 kts | 130° |
| 2026-05-08 03:08 | -34.06129 | -59.73279 | 23236 ft | 432 kts | 130° |
| 2026-05-08 03:08 | -34.07799 | -59.70257 | 22951 ft | 431 kts | 129° |
| 2026-05-08 03:08 | -34.09455 | -59.67261 | 22656 ft | 429 kts | 129° |
| 2026-05-08 03:09 | -34.11109 | -59.64273 | 22413 ft | 427 kts | 129° |
| 2026-05-08 03:09 | -34.12734 | -59.61334 | 22140 ft | 426 kts | 129° |
| 2026-05-08 03:09 | -34.14375 | -59.58368 | 21874 ft | 424 kts | 129° |
| 2026-05-08 03:09 | -34.16011 | -59.55412 | 21624 ft | 422 kts | 128° |
| 2026-05-08 03:10 | -34.17632 | -59.52474 | 21360 ft | 420 kts | 128° |
| 2026-05-08 03:10 | -34.19248 | -59.49542 | 21100 ft | 418 kts | 128° |
| 2026-05-08 03:10 | -34.20853 | -59.46625 | 20837 ft | 416 kts | 128° |
| 2026-05-08 03:10 | -34.22457 | -59.43709 | 20577 ft | 415 kts | 128° |
| 2026-05-08 03:11 | -34.24031 | -59.40800 | 20328 ft | 413 kts | 127° |
| 2026-05-08 03:11 | -34.25578 | -59.37878 | 20067 ft | 412 kts | 127° |
| 2026-05-08 03:11 | -34.27100 | -59.34966 | 19813 ft | 410 kts | 126° |
| 2026-05-08 03:11 | -34.28618 | -59.32046 | 19564 ft | 409 kts | 126° |
| 2026-05-08 03:12 | -34.30133 | -59.29135 | 19334 ft | 408 kts | 126° |
| 2026-05-08 03:12 | -34.31646 | -59.26239 | 19093 ft | 406 kts | 126° |
| 2026-05-08 03:12 | -34.33152 | -59.23363 | 18844 ft | 404 kts | 126° |
| 2026-05-08 03:12 | -34.34660 | -59.20488 | 18603 ft | 403 kts | 126° |
| 2026-05-08 03:13 | -34.36161 | -59.17635 | 18360 ft | 402 kts | 126° |
| 2026-05-08 03:13 | -34.37659 | -59.14785 | 18126 ft | 401 kts | 125° |
| 2026-05-08 03:13 | -34.39147 | -59.11947 | 17837 ft | 397 kts | 125° |
| 2026-05-08 03:13 | -34.40616 | -59.09139 | 17327 ft | 392 kts | 125° |
| 2026-05-08 03:14 | -34.42053 | -59.06393 | 16824 ft | 388 kts | 125° |
| 2026-05-08 03:14 | -34.43490 | -59.03647 | 16320 ft | 384 kts | 125° |
| 2026-05-08 03:14 | -34.44914 | -59.00918 | 15799 ft | 382 kts | 124° |
| 2026-05-08 03:14 | -34.46324 | -58.98206 | 15275 ft | 380 kts | 124° |
| 2026-05-08 03:15 | -34.47726 | -58.95510 | 14746 ft | 378 kts | 124° |
| 2026-05-08 03:15 | -34.49127 | -58.92820 | 14229 ft | 376 kts | 124° |
| 2026-05-08 03:15 | -34.50523 | -58.90141 | 13700 ft | 375 kts | 124° |
| 2026-05-08 03:15 | -34.51912 | -58.87473 | 13141 ft | 373 kts | 124° |
| 2026-05-08 03:16 | -34.53292 | -58.84819 | 12606 ft | 370 kts | 124° |
| 2026-05-08 03:16 | -34.54659 | -58.82187 | 12083 ft | 367 kts | 125° |
| 2026-05-08 03:16 | -34.55976 | -58.79558 | 11561 ft | 365 kts | 120° |
| 2026-05-08 03:16 | -34.56943 | -58.76713 | 11054 ft | 364 kts | 110° |
| 2026-05-08 03:17 | -34.57726 | -58.73840 | 10581 ft | 360 kts | 110° |
| 2026-05-08 03:17 | -34.58513 | -58.70968 | 10221 ft | 354 kts | 111° |
| 2026-05-08 03:17 | -34.59277 | -58.68188 | 10078 ft | 341 kts | 111° |
| 2026-05-08 03:17 | -34.60019 | -58.65500 | 9962 ft | 330 kts | 111° |
| 2026-05-08 03:18 | -34.60736 | -58.62905 | 9834 ft | 319 kts | 111° |
| 2026-05-08 03:18 | -34.61431 | -58.60378 | 9674 ft | 311 kts | 111° |
| 2026-05-08 03:18 | -34.62102 | -58.57895 | 9305 ft | 311 kts | 111° |
| 2026-05-08 03:18 | -34.62762 | -58.55419 | 9054 ft | 305 kts | 111° |
| 2026-05-08 03:19 | -34.63407 | -58.52981 | 8470 ft | 302 kts | 111° |
| 2026-05-08 03:19 | -34.63843 | -58.51332 | 8050 ft | 301 kts | 111° |
| 2026-05-08 03:19 | -34.64685 | -58.48149 | 7259 ft | 297 kts | 111° |
| 2026-05-08 03:19 | -34.65110 | -58.46550 | 6887 ft | 294 kts | 111° |
| 2026-05-08 03:20 | -34.65738 | -58.44185 | 6308 ft | 292 kts | 111° |
| 2026-05-08 03:20 | -34.66351 | -58.41875 | 5716 ft | 290 kts | 111° |
| 2026-05-08 03:20 | -34.66967 | -58.39553 | 5134 ft | 287 kts | 112° |
| 2026-05-08 03:20 | -34.67573 | -58.37260 | 4588 ft | 283 kts | 112° |
| 2026-05-08 03:21 | -34.68170 | -58.34993 | 3991 ft | 281 kts | 112° |
| 2026-05-08 03:21 | -34.68756 | -58.32770 | 3695 ft | 268 kts | 112° |
| 2026-05-08 03:21 | -34.69153 | -58.30647 | 3637 ft | 251 kts | 93° |
| 2026-05-08 03:21 | -34.68745 | -58.28630 | 3577 ft | 249 kts | 59° |
| 2026-05-08 03:22 | -34.67544 | -58.27152 | 3476 ft | 247 kts | 25° |
| 2026-05-08 03:22 | -34.65958 | -58.26650 | 3264 ft | 229 kts | 351° |
| 2026-05-08 03:22 | -34.64473 | -58.27083 | 2927 ft | 215 kts | 322° |
| 2026-05-08 03:22 | -34.63375 | -58.28203 | 2577 ft | 199 kts | 298° |
| 2026-05-08 03:23 | -34.62624 | -58.29552 | 2264 ft | 187 kts | 295° |
| 2026-05-08 03:23 | -34.61916 | -58.30815 | 2001 ft | 172 kts | 296° |
| 2026-05-08 03:23 | -34.61276 | -58.31946 | 1765 ft | 155 kts | 295° |
| 2026-05-08 03:23 | -34.60701 | -58.32968 | 1664 ft | 142 kts | 294° |
| 2026-05-08 03:24 | -34.60163 | -58.33948 | 1320 ft | 138 kts | 294° |
| 2026-05-08 03:24 | -34.59654 | -58.34896 | 1235 ft | 132 kts | 294° |
| 2026-05-08 03:24 | -34.59158 | -58.35836 | 1041 ft | 132 kts | 295° |
| 2026-05-08 03:24 | -34.58619 | -58.36753 | 804 ft | 134 kts | 298° |
| 2026-05-08 03:25 | -34.58104 | -58.37685 | 625 ft | 132 kts | 297° |
| 2026-05-08 03:25 | -34.57589 | -58.38613 | 470 ft | 133 kts | 301° |
| 2026-05-08 03:25 | -34.57065 | -58.39553 | 301 ft | 136 kts | 303° |
| 2026-05-08 03:25 | -34.56524 | -58.40506 | 105 ft | 135 kts | 301° |
| 2026-05-08 03:26 | -34.56021 | -58.41411 | 31 ft | 115 kts | 303° |
| 2026-05-08 03:26 | -34.55740 | -58.41906 | 24 ft | 34 kts | 303° |
| 2026-05-08 03:26 | -34.55624 | -58.42119 | 27 ft | 31 kts | 302° |
| 2026-05-08 03:26 | -34.55507 | -58.42330 | 28 ft | 30 kts | 304° |
| 2026-05-08 03:27 | -34.55414 | -58.42488 | 27 ft | 17 kts | 327° |
| 2026-05-08 03:27 | -34.55364 | -58.42456 | 25 ft | 9 kts | 77° |
| 2026-05-08 03:27 | -34.55375 | -58.42379 | 28 ft | 10 kts | 102° |
| 2026-05-08 03:27 | -34.55415 | -58.42300 | 28 ft | 12 kts | 127° |
| 2026-05-08 03:28 | -34.55470 | -58.42212 | 27 ft | 14 kts | 127° |
| 2026-05-08 03:28 | -34.55532 | -58.42110 | 26 ft | 16 kts | 127° |
| 2026-05-08 03:28 | -34.55602 | -58.41994 | 27 ft | 18 kts | 125° |
| 2026-05-08 03:28 | -34.55679 | -58.41860 | 27 ft | 21 kts | 124° |
| 2026-05-08 03:29 | -34.55749 | -58.41718 | 28 ft | 18 kts | 117° |
| 2026-05-08 03:29 | -34.55811 | -58.41572 | 30 ft | 21 kts | 117° |
| 2026-05-08 03:29 | -34.55881 | -58.41407 | 27 ft | 23 kts | 117° |
| 2026-05-08 03:29 | -34.55960 | -58.41244 | 29 ft | 20 kts | 125° |
| 2026-05-08 03:30 | -34.56015 | -58.41061 | 26 ft | 8 kts | 4° |
| 2026-05-08 03:30 | -34.55940 | -58.41105 | 27 ft | 4 kts | 14° |
| 2026-05-08 03:31 | -34.55913 | -58.41078 | 25 ft | 0 kts | 41° |